createdAt,value
2018-10-19T00:00:44.653Z,22.93
2018-10-19T00:03:13.072Z,22.93
2018-10-19T00:05:41.361Z,22.60
2018-10-19T00:08:09.703Z,25.00
2018-10-19T00:10:38.060Z,24.47
2018-10-19T00:13:06.455Z,23.87
2018-10-19T00:15:34.803Z,24.00
2018-10-19T00:18:03.171Z,23.50
2018-10-19T00:20:31.641Z,25.67
2018-10-19T00:23:00.064Z,25.70
2018-10-19T00:25:28.455Z,25.47
2018-10-19T00:27:56.859Z,25.40
2018-10-19T00:30:25.199Z,24.87
2018-10-19T00:32:53.588Z,25.77
2018-10-19T00:35:21.968Z,24.73
2018-10-19T00:37:50.319Z,26.87
2018-10-19T00:40:18.668Z,25.90
2018-10-19T00:42:47.027Z,25.73
2018-10-19T00:45:15.541Z,26.30
2018-10-19T00:47:43.823Z,26.23
2018-10-19T00:50:12.274Z,26.20
2018-10-19T00:52:40.602Z,26.93
2018-10-19T00:55:08.998Z,24.00
2018-10-19T00:57:37.345Z,27.50
2018-10-19T01:00:05.702Z,27.03
2018-10-19T01:02:34.086Z,25.23
2018-10-19T01:05:02.523Z,26.57
2018-10-19T01:07:30.836Z,26.33
2018-10-19T01:09:59.198Z,27.40
2018-10-19T01:12:27.551Z,27.03
2018-10-19T01:14:55.930Z,25.33
2018-10-19T01:17:24.263Z,27.30
2018-10-19T01:19:52.619Z,26.40
2018-10-19T01:22:20.976Z,26.37
2018-10-19T01:24:49.328Z,26.97
2018-10-19T01:27:17.673Z,27.90
2018-10-19T01:29:46.034Z,26.83
2018-10-19T01:32:14.410Z,26.70
2018-10-19T01:34:42.751Z,27.77
2018-10-19T01:37:11.198Z,27.53
2018-10-19T01:39:39.551Z,28.40
2018-10-19T01:42:07.973Z,25.33
2018-10-19T01:44:36.302Z,29.10
2018-10-19T01:47:04.727Z,29.40
2018-10-19T01:49:33.051Z,30.30
2018-10-19T01:52:01.414Z,30.40
2018-10-19T01:54:29.782Z,27.63
2018-10-19T01:56:58.206Z,31.93
2018-10-19T01:59:26.535Z,29.30
2018-10-19T02:01:54.901Z,28.67
2018-10-19T02:04:23.236Z,29.20
2018-10-19T02:06:51.754Z,29.77
2018-10-19T02:09:20.238Z,31.07
2018-10-19T02:11:48.576Z,30.60
2018-10-19T02:14:16.924Z,27.07
2018-10-19T02:16:45.293Z,29.17
2018-10-19T02:19:13.648Z,30.53
2018-10-19T02:21:42.010Z,29.27
2018-10-19T02:24:10.338Z,28.27
2018-10-19T02:26:39.726Z,27.60
2018-10-19T02:29:08.212Z,28.80
2018-10-19T02:31:36.495Z,26.67
2018-10-19T02:34:05.072Z,28.17
2018-10-19T02:36:33.415Z,29.73
2018-10-19T02:39:01.862Z,28.70
2018-10-19T02:41:30.205Z,31.53
2018-10-19T02:43:58.620Z,29.13
2018-10-19T02:46:26.975Z,31.33
2018-10-19T02:48:55.321Z,29.23
2018-10-19T02:51:23.745Z,31.07
2018-10-19T02:53:52.217Z,31.77
2018-10-19T02:56:20.669Z,29.70
2018-10-19T02:58:49.042Z,28.30
2018-10-19T03:01:17.422Z,29.63
2018-10-19T03:03:45.850Z,28.40
2018-10-19T03:06:14.205Z,30.67
2018-10-19T03:08:42.571Z,31.60
2018-10-19T03:11:10.978Z,31.47
2018-10-19T03:13:39.343Z,29.53
2018-10-19T03:16:07.730Z,29.10
2018-10-19T03:18:36.087Z,28.87
2018-10-19T03:21:04.718Z,30.47
2018-10-19T03:23:33.056Z,31.10
2018-10-19T03:26:02.432Z,29.47
2018-10-19T03:28:30.831Z,29.10
2018-10-19T03:30:59.189Z,28.93
2018-10-19T03:33:27.571Z,28.40
2018-10-19T03:35:55.959Z,29.70
2018-10-19T03:38:24.591Z,30.70
2018-10-19T03:40:53.188Z,30.97
2018-10-19T03:43:21.768Z,30.00
2018-10-19T03:45:50.338Z,30.50
2018-10-19T03:48:18.922Z,29.07
2018-10-19T03:50:47.456Z,31.07
2018-10-19T03:53:16.087Z,29.33
2018-10-19T03:55:44.608Z,32.87
2018-10-19T03:58:14.226Z,30.93
2018-10-19T04:00:42.754Z,33.40
2018-10-19T04:03:11.360Z,29.90
2018-10-19T04:05:39.855Z,32.50
2018-10-19T04:08:08.499Z,32.10
2018-10-19T04:10:37.055Z,30.10
2018-10-19T04:13:05.619Z,29.63
2018-10-19T04:15:34.139Z,31.50
2018-10-19T04:18:02.753Z,30.27
2018-10-19T04:20:31.315Z,33.57
2018-10-19T04:23:04.401Z,30.70
2018-10-19T04:25:33.013Z,32.20
2018-10-19T04:28:01.713Z,29.87
2018-10-19T04:30:30.373Z,32.17
2018-10-19T04:33:05.940Z,30.37
2018-10-19T04:35:34.375Z,29.30
2018-10-19T04:38:03.643Z,31.53
2018-10-19T04:40:32.214Z,32.67
2018-10-19T04:43:01.181Z,28.33
2018-10-19T04:45:29.878Z,31.57
2018-10-19T04:47:58.630Z,29.70
2018-10-19T04:50:27.388Z,31.73
2018-10-19T04:52:55.870Z,29.03
2018-10-19T04:55:24.207Z,31.30
2018-10-19T04:57:52.612Z,31.17
2018-10-19T05:00:21.572Z,30.70
2018-10-19T05:02:50.910Z,29.47
2018-10-19T05:05:19.655Z,29.17
2018-10-19T05:07:48.024Z,29.27
2018-10-19T05:10:16.552Z,32.50
2018-10-19T05:12:45.138Z,28.50
2018-10-19T05:15:13.485Z,31.10
2018-10-19T05:17:41.948Z,31.00
2018-10-19T05:20:11.581Z,30.50
2018-10-19T05:22:40.019Z,32.97
2018-10-19T05:25:10.183Z,33.77
2018-10-19T05:27:38.695Z,31.53
2018-10-19T05:30:08.967Z,33.07
2018-10-19T05:32:37.664Z,33.50
2018-10-19T05:35:06.959Z,36.20
2018-10-19T05:37:35.572Z,33.40
2018-10-19T05:40:04.037Z,33.57
2018-10-19T05:42:32.572Z,33.73
2018-10-19T05:45:01.097Z,34.80
2018-10-19T05:47:29.723Z,37.17
2018-10-19T05:49:58.202Z,75.50
2018-10-19T05:52:26.783Z,35.37
2018-10-19T05:54:55.281Z,35.03
2018-10-19T05:57:23.805Z,36.07
2018-10-19T05:59:52.467Z,38.87
2018-10-19T06:02:21.427Z,39.07
2018-10-19T06:04:49.843Z,45.83
2018-10-19T06:07:18.307Z,39.30
2018-10-19T06:09:46.939Z,34.73
2018-10-19T06:12:16.523Z,40.97
2018-10-19T06:14:45.039Z,39.50
2018-10-19T06:17:13.530Z,46.17
2018-10-19T06:19:42.031Z,40.30
2018-10-19T06:22:10.569Z,37.70
2018-10-19T06:24:39.056Z,41.87
2018-10-19T06:27:07.548Z,39.20
2018-10-19T06:29:37.067Z,36.97
2018-10-19T06:32:06.053Z,39.47
2018-10-19T06:34:34.574Z,39.00
2018-10-19T06:37:03.014Z,39.13
2018-10-19T06:39:31.552Z,35.77
2018-10-19T06:42:01.091Z,38.77
2018-10-19T06:44:29.594Z,38.60
2018-10-19T06:46:58.248Z,37.70
2018-10-19T06:49:26.725Z,35.40
2018-10-19T06:51:55.300Z,33.40
2018-10-19T06:54:25.082Z,34.30
2018-10-19T06:56:53.618Z,33.40
2018-10-19T06:59:22.246Z,36.37
2018-10-19T07:01:50.814Z,33.00
2018-10-19T07:04:19.403Z,33.97
2018-10-19T07:06:48.019Z,36.00
2018-10-19T07:09:16.518Z,32.30
2018-10-19T07:11:45.101Z,33.63
2018-10-19T07:14:14.690Z,35.33
2018-10-19T07:16:43.293Z,36.10
2018-10-19T07:19:11.840Z,36.00
2018-10-19T07:21:40.356Z,32.53
2018-10-19T07:24:08.861Z,32.73
2018-10-19T07:26:37.367Z,34.17
2018-10-19T07:29:05.902Z,31.90
2018-10-19T07:31:34.534Z,30.20
2018-10-19T07:34:03.184Z,32.00
2018-10-19T07:36:31.844Z,31.53
2018-10-19T07:39:00.292Z,33.10
2018-10-19T07:41:29.810Z,31.00
2018-10-19T07:43:58.368Z,30.50
2018-10-19T07:46:27.579Z,31.93
2018-10-19T07:48:56.159Z,29.20
2018-10-19T07:51:24.782Z,28.97
2018-10-19T07:53:53.284Z,27.30
2018-10-19T07:56:21.684Z,26.33
2018-10-19T07:58:50.199Z,27.97
2018-10-19T08:01:18.932Z,25.77
2018-10-19T08:03:47.442Z,26.53
2018-10-19T08:06:16.046Z,24.87
2018-10-19T08:08:44.587Z,28.57
2018-10-19T08:11:13.170Z,27.00
2018-10-19T08:13:41.613Z,29.47
2018-10-19T08:16:10.287Z,26.53
2018-10-19T08:18:38.887Z,26.23
2018-10-19T08:21:07.915Z,26.37
2018-10-19T08:23:36.310Z,27.53
2018-10-19T08:26:05.076Z,29.60
2018-10-19T08:28:33.606Z,29.87
2018-10-19T08:31:02.345Z,28.60
2018-10-19T08:33:30.820Z,26.93
2018-10-19T08:35:59.532Z,26.77
2018-10-19T08:38:28.069Z,26.10
2018-10-19T08:40:56.709Z,24.33
2018-10-19T08:43:25.317Z,26.13
2018-10-19T08:45:54.051Z,24.87
2018-10-19T08:48:22.744Z,26.57
2018-10-19T08:50:51.297Z,24.07
2018-10-19T08:53:20.224Z,25.27
2018-10-19T08:55:48.893Z,25.50
2018-10-19T08:58:17.445Z,25.30
2018-10-19T09:00:46.012Z,23.80
2018-10-19T09:03:14.793Z,23.97
2018-10-19T09:05:43.862Z,26.63
2018-10-19T09:08:12.453Z,24.37
2018-10-19T09:10:41.032Z,26.77
2018-10-19T09:13:09.544Z,24.50
2018-10-19T09:15:38.348Z,24.70
2018-10-19T09:18:07.097Z,25.50
2018-10-19T09:20:35.862Z,26.40
2018-10-19T09:23:04.529Z,25.17
2018-10-19T09:25:33.255Z,25.80
2018-10-19T09:28:01.879Z,24.20
2018-10-19T09:30:30.522Z,22.67
2018-10-19T09:32:59.160Z,21.40
2018-10-19T09:35:27.756Z,24.43
2018-10-19T09:37:56.344Z,25.17
2018-10-19T09:40:25.051Z,23.00
2018-10-19T09:42:53.711Z,23.80
2018-10-19T09:45:22.635Z,20.53
2018-10-19T09:47:51.173Z,20.70
2018-10-19T09:50:19.634Z,20.27
2018-10-19T09:52:48.834Z,19.07
2018-10-19T09:55:17.560Z,21.03
2018-10-19T09:57:46.012Z,18.67
2018-10-19T10:00:20.813Z,19.40
2018-10-19T10:02:49.666Z,21.67
2018-10-19T10:05:18.305Z,19.70
2018-10-19T10:07:47.021Z,19.60
2018-10-19T10:10:15.598Z,18.70
2018-10-19T10:12:44.219Z,20.20
2018-10-19T10:15:13.022Z,20.40
2018-10-19T10:17:41.404Z,21.20
2018-10-19T10:20:10.047Z,19.57
2018-10-19T10:22:38.714Z,21.20
2018-10-19T10:25:07.991Z,19.03
2018-10-19T10:27:36.730Z,21.83
2018-10-19T10:30:06.186Z,20.00
2018-10-19T10:32:34.996Z,19.27
2018-10-19T10:35:03.586Z,21.97
2018-10-19T10:37:32.096Z,21.63
2018-10-19T10:40:00.720Z,21.50
2018-10-19T10:42:29.217Z,20.27
2018-10-19T10:44:57.718Z,21.80
2018-10-19T10:47:26.338Z,21.00
2018-10-19T10:49:55.075Z,20.33
2018-10-19T10:52:25.545Z,20.00
2018-10-19T10:54:54.096Z,20.40
2018-10-19T10:57:22.592Z,19.90
2018-10-19T10:59:51.072Z,18.53
2018-10-19T11:02:19.615Z,19.00
2018-10-19T11:04:48.149Z,18.80
2018-10-19T11:07:16.727Z,16.97
2018-10-19T11:09:45.130Z,17.93
2018-10-19T11:12:13.675Z,16.53
2018-10-19T11:14:42.176Z,14.97
2018-10-19T11:17:10.797Z,16.20
2018-10-19T11:19:39.371Z,15.93
2018-10-19T11:22:08.065Z,16.90
2018-10-19T11:24:36.496Z,18.03
2018-10-19T11:27:05.311Z,19.37
2018-10-19T11:29:33.921Z,19.87
2018-10-19T11:32:02.435Z,17.03
2018-10-19T11:34:31.059Z,18.27
2018-10-19T11:36:59.532Z,17.67
2018-10-19T11:39:28.155Z,16.77
2018-10-19T11:41:56.756Z,17.57
2018-10-19T11:44:26.243Z,17.27
2018-10-19T11:46:57.854Z,15.80
2018-10-19T11:49:26.330Z,17.83
2018-10-19T11:51:54.823Z,16.80
2018-10-19T11:54:23.416Z,18.03
2018-10-19T11:56:52.070Z,18.10
2018-10-19T11:59:20.629Z,17.43
2018-10-19T12:01:49.199Z,19.07
2018-10-19T12:04:17.810Z,18.27
2018-10-19T12:06:46.282Z,18.90
2018-10-19T12:09:14.805Z,17.57
2018-10-19T12:11:43.266Z,17.40
2018-10-19T12:14:11.759Z,17.43
2018-10-19T12:16:41.572Z,18.10
2018-10-19T12:19:10.046Z,18.17
2018-10-19T12:21:38.466Z,17.87
2018-10-19T12:24:07.999Z,17.87
2018-10-19T12:26:36.609Z,15.53
2018-10-19T12:29:05.180Z,16.50
2018-10-19T12:31:33.766Z,17.20
2018-10-19T12:34:02.443Z,17.30
2018-10-19T12:36:31.063Z,15.70
2018-10-19T12:38:59.828Z,14.57
2018-10-19T12:41:29.474Z,17.77
2018-10-19T12:43:58.068Z,16.33
2018-10-19T12:46:41.954Z,15.20
2018-10-19T12:49:11.515Z,16.43
2018-10-19T12:51:40.282Z,15.33
2018-10-19T12:54:09.131Z,14.43
2018-10-19T12:56:37.778Z,14.07
2018-10-19T12:59:06.366Z,16.27
2018-10-19T13:01:35.114Z,15.03
2018-10-19T13:04:04.117Z,14.53
2018-10-19T13:06:32.845Z,13.80
2018-10-19T13:09:01.471Z,16.07
2018-10-19T13:11:30.143Z,14.50
2018-10-19T13:13:58.743Z,14.67
2018-10-19T13:16:27.433Z,15.53
2018-10-19T13:18:56.109Z,13.50
2018-10-19T13:21:25.795Z,14.77
2018-10-19T13:23:54.504Z,14.20
2018-10-19T13:26:23.189Z,14.20
2018-10-19T13:28:51.895Z,14.60
2018-10-19T13:31:20.502Z,14.63
2018-10-19T13:33:48.955Z,12.03
2018-10-19T13:36:17.631Z,14.53
2018-10-19T13:38:46.105Z,12.37
2018-10-19T13:41:14.720Z,12.17
2018-10-19T13:43:43.842Z,15.20
2018-10-19T13:46:12.487Z,12.47
2018-10-19T13:48:41.137Z,12.10
2018-10-19T13:51:09.669Z,12.07
2018-10-19T13:53:38.179Z,12.20
2018-10-19T13:56:06.677Z,11.93
2018-10-19T13:58:37.387Z,13.17
2018-10-19T14:01:06.419Z,11.47
2018-10-19T14:03:35.023Z,11.90
2018-10-19T14:06:03.623Z,12.70
2018-10-19T14:08:32.318Z,11.97
2018-10-19T14:11:00.922Z,12.40
2018-10-19T14:13:29.652Z,13.47
2018-10-19T14:15:58.209Z,12.03
2018-10-19T14:18:26.770Z,12.43
2018-10-19T14:20:55.416Z,14.10
2018-10-19T14:23:24.011Z,15.37
2018-10-19T14:25:52.611Z,12.40
2018-10-19T14:28:21.230Z,12.20
2018-10-19T14:30:49.803Z,12.87
2018-10-19T14:33:18.476Z,12.30
2018-10-19T14:35:46.911Z,13.00
2018-10-19T14:38:15.415Z,12.60
2018-10-19T14:40:44.066Z,14.17
2018-10-19T14:43:12.598Z,13.83
2018-10-19T14:45:41.090Z,14.20
2018-10-19T14:48:09.605Z,13.57
2018-10-19T14:50:38.082Z,13.10
2018-10-19T14:53:06.668Z,13.07
2018-10-19T14:55:35.300Z,14.33
2018-10-19T14:58:03.862Z,15.13
2018-10-19T15:00:32.473Z,13.70
2018-10-19T15:03:01.129Z,15.73
2018-10-19T15:05:29.732Z,13.87
2018-10-19T15:07:58.243Z,13.83
2018-10-19T15:10:27.068Z,15.40
2018-10-19T15:12:55.420Z,13.27
2018-10-19T15:15:24.111Z,13.53
2018-10-19T15:17:52.634Z,14.60
2018-10-19T15:20:21.183Z,12.90
2018-10-19T15:22:51.651Z,14.53
2018-10-19T15:25:20.260Z,14.20
2018-10-19T15:27:48.767Z,13.53
2018-10-19T15:30:18.631Z,14.37
2018-10-19T15:32:47.070Z,13.30
2018-10-19T15:35:15.529Z,14.67
2018-10-19T15:37:44.051Z,13.80
2018-10-19T15:40:12.779Z,12.17
2018-10-19T15:42:41.322Z,14.93
2018-10-19T15:45:11.182Z,13.63
2018-10-19T15:47:39.668Z,14.20
2018-10-19T15:50:08.712Z,14.10
2018-10-19T15:52:38.284Z,12.73
2018-10-19T15:55:07.111Z,12.70
2018-10-19T15:57:35.618Z,16.17
2018-10-19T16:00:04.193Z,14.60
2018-10-19T16:02:32.659Z,14.47
2018-10-19T16:05:01.250Z,13.97
2018-10-19T16:07:29.823Z,13.87
2018-10-19T16:09:58.389Z,13.23
2018-10-19T16:12:26.892Z,14.77
2018-10-19T16:14:55.495Z,11.60
2018-10-19T16:17:23.962Z,14.00
2018-10-19T16:19:52.730Z,15.83
2018-10-19T16:22:21.274Z,14.17
2018-10-19T16:24:49.739Z,14.00
2018-10-19T16:27:18.344Z,13.00
2018-10-19T16:29:46.756Z,13.57
2018-10-19T16:32:18.467Z,13.60
2018-10-19T16:34:47.275Z,13.53
2018-10-19T16:37:15.608Z,12.20
2018-10-19T16:39:44.021Z,14.20
2018-10-19T16:42:12.554Z,12.80
2018-10-19T16:44:40.916Z,12.77
2018-10-19T16:47:09.359Z,12.07
2018-10-19T16:49:37.795Z,13.40
2018-10-19T16:52:06.375Z,12.10
2018-10-19T16:54:34.701Z,13.90
2018-10-19T16:57:03.242Z,13.00
2018-10-19T16:59:33.688Z,12.13
2018-10-19T17:02:02.209Z,15.17
2018-10-19T17:04:30.660Z,13.60
2018-10-19T17:06:59.155Z,14.50
2018-10-19T17:09:27.607Z,13.80
2018-10-19T17:11:56.046Z,13.50
2018-10-19T17:14:24.523Z,14.37
2018-10-19T17:16:55.167Z,14.30
2018-10-19T17:19:26.758Z,14.57
2018-10-19T17:21:55.159Z,15.10
2018-10-19T17:24:23.641Z,14.77
2018-10-19T17:26:52.118Z,14.17
2018-10-19T17:29:20.587Z,13.70
2018-10-19T17:31:49.097Z,15.10
2018-10-19T17:34:17.557Z,14.47
2018-10-19T17:36:46.118Z,15.70
2018-10-19T17:39:14.724Z,14.67
2018-10-19T17:41:43.082Z,15.80
2018-10-19T17:44:11.561Z,15.27
2018-10-19T17:46:40.031Z,12.60
2018-10-19T17:49:08.534Z,13.50
2018-10-19T17:51:36.930Z,13.70
2018-10-19T17:54:05.569Z,14.00
2018-10-19T17:56:33.985Z,17.30
2018-10-19T17:59:02.609Z,15.10
2018-10-19T18:01:31.079Z,15.83
2018-10-19T18:03:59.638Z,14.20
2018-10-19T18:06:30.159Z,14.30
2018-10-19T18:08:58.671Z,13.00
2018-10-19T18:11:27.160Z,15.60
2018-10-19T18:13:55.661Z,15.33
2018-10-19T18:16:25.096Z,13.93
2018-10-19T18:18:53.654Z,15.43
2018-10-19T18:21:22.168Z,15.50
2018-10-19T18:23:50.841Z,14.50
2018-10-19T18:26:19.128Z,14.17
2018-10-19T18:28:47.773Z,13.43
2018-10-19T18:31:16.258Z,14.33
2018-10-19T18:33:44.724Z,14.60
2018-10-19T18:36:14.174Z,13.57
2018-10-19T18:38:42.624Z,15.70
2018-10-19T18:41:11.472Z,13.27
2018-10-19T18:43:39.935Z,13.93
2018-10-19T18:46:08.495Z,15.83
2018-10-19T18:48:37.153Z,15.27
2018-10-19T18:51:05.901Z,14.37
2018-10-19T18:53:34.346Z,14.67
2018-10-19T18:56:02.848Z,16.23
2018-10-19T18:58:31.291Z,16.90
2018-10-19T19:00:59.843Z,15.10
2018-10-19T19:03:28.366Z,14.43
2018-10-19T19:05:56.814Z,17.10
2018-10-19T19:08:26.250Z,16.50
2018-10-19T19:10:54.698Z,15.37
2018-10-19T19:13:29.786Z,15.17
2018-10-19T19:15:58.746Z,17.23
2018-10-19T19:18:27.259Z,17.00
2018-10-19T19:20:55.827Z,15.90
2018-10-19T19:23:24.317Z,15.47
2018-10-19T19:25:58.238Z,16.90
2018-10-19T19:28:26.718Z,16.47
2018-10-19T19:30:55.426Z,16.97
2018-10-19T19:33:29.390Z,14.13
2018-10-19T19:35:57.841Z,15.83
2018-10-19T19:38:27.265Z,16.73
2018-10-19T19:41:01.132Z,15.00
2018-10-19T19:43:29.567Z,15.10
2018-10-19T19:45:58.002Z,16.00
2018-10-19T19:50:32.815Z,18.23
2018-10-19T19:53:01.453Z,16.70
2018-10-19T19:55:29.843Z,18.67
2018-10-19T19:57:58.342Z,19.07
2018-10-19T20:00:26.839Z,18.53
2018-10-19T20:02:55.365Z,19.10
2018-10-19T20:05:23.887Z,18.97
2018-10-19T20:07:52.412Z,17.90
2018-10-19T20:10:21.024Z,19.47
2018-10-19T20:12:49.582Z,19.30
2018-10-19T20:15:18.103Z,19.13
2018-10-19T20:17:46.620Z,16.80
2018-10-19T20:20:15.211Z,18.67
2018-10-19T20:22:43.747Z,20.00
2018-10-19T20:25:12.907Z,18.10
2018-10-19T20:27:41.696Z,19.23
2018-10-19T20:30:11.900Z,20.97
2018-10-19T20:32:40.466Z,19.93
2018-10-19T20:35:09.413Z,18.17
2018-10-19T20:37:37.854Z,19.10
2018-10-19T20:40:06.295Z,18.50
2018-10-19T20:42:34.922Z,18.73
2018-10-19T20:45:03.731Z,18.10
2018-10-19T20:47:32.191Z,18.03
2018-10-19T20:50:00.687Z,16.90
2018-10-19T20:52:29.141Z,18.80
2018-10-19T20:54:57.799Z,18.17
2018-10-19T20:57:26.191Z,18.00
2018-10-19T20:59:54.707Z,16.70
2018-10-19T21:02:23.183Z,17.20
2018-10-19T21:04:51.607Z,16.20
2018-10-19T21:07:20.205Z,15.40
2018-10-19T21:09:48.548Z,15.40
2018-10-19T21:12:16.965Z,17.03
2018-10-19T21:14:45.379Z,15.07
2018-10-19T21:17:13.891Z,16.50
2018-10-19T21:19:42.300Z,14.27
2018-10-19T21:22:10.653Z,14.87
2018-10-19T21:24:39.131Z,14.43
2018-10-19T21:27:07.763Z,14.50
2018-10-19T21:29:36.218Z,15.70
2018-10-19T21:32:04.743Z,15.67
2018-10-19T21:34:33.135Z,14.87
2018-10-19T21:37:01.700Z,15.80
2018-10-19T21:39:31.071Z,17.13
2018-10-19T21:41:59.422Z,16.97
2018-10-19T21:44:27.791Z,17.00
2018-10-19T21:46:56.178Z,17.83
2018-10-19T21:49:24.592Z,18.37
2018-10-19T21:51:53.038Z,17.43
2018-10-19T21:54:21.442Z,16.97
2018-10-19T21:56:49.855Z,15.67
2018-10-19T21:59:18.331Z,17.30
2018-10-19T22:01:48.742Z,16.57
2018-10-19T22:04:17.204Z,15.60
2018-10-19T22:06:45.610Z,17.37
2018-10-19T22:09:14.186Z,17.93
2018-10-19T22:11:42.862Z,17.70
2018-10-19T22:14:11.424Z,16.60
2018-10-19T22:16:40.499Z,17.03
2018-10-19T22:19:09.895Z,16.00
2018-10-19T22:21:38.494Z,17.23
2018-10-19T22:24:07.544Z,17.03
2018-10-19T22:26:36.891Z,14.77
2018-10-19T22:29:05.433Z,14.70
2018-10-19T22:31:33.770Z,15.77
2018-10-19T22:34:02.152Z,15.57
2018-10-19T22:36:30.670Z,15.80
2018-10-19T22:38:59.343Z,16.73
2018-10-19T22:41:27.848Z,17.17
2018-10-19T22:43:56.215Z,18.60
2018-10-19T22:46:25.608Z,17.17
2018-10-19T22:48:54.017Z,18.10
2018-10-19T22:51:22.413Z,18.30
2018-10-19T22:53:50.790Z,16.10
2018-10-19T22:56:19.242Z,16.70
2018-10-19T22:58:47.733Z,16.50
2018-10-19T23:01:16.189Z,14.87
2018-10-19T23:03:44.566Z,14.67
2018-10-19T23:06:12.963Z,14.77
2018-10-19T23:08:41.399Z,14.80
2018-10-19T23:11:09.905Z,16.73
2018-10-19T23:13:38.255Z,16.50
2018-10-19T23:16:06.656Z,15.10
2018-10-19T23:18:35.051Z,15.77
2018-10-19T23:21:04.421Z,16.23
2018-10-19T23:23:33.693Z,16.87
2018-10-19T23:26:02.127Z,19.00
2018-10-19T23:28:30.496Z,19.47
2018-10-19T23:30:59.906Z,19.30
2018-10-19T23:33:28.206Z,18.33
2018-10-19T23:35:56.556Z,20.70
2018-10-19T23:38:24.958Z,18.87
2018-10-19T23:40:53.341Z,18.57
2018-10-19T23:43:21.671Z,18.13
2018-10-19T23:45:50.075Z,17.97
2018-10-19T23:48:18.469Z,17.63
2018-10-19T23:50:47.057Z,15.83
2018-10-19T23:53:15.620Z,15.83
2018-10-19T23:55:43.946Z,15.10
2018-10-19T23:58:12.332Z,14.80
